Terminal Aerodrome Forecast
Issued by NWS

Home | Current Version | Previous Version | Text Only | Print | Product List | Glossary On
Versions: 1 2 3 4 5 6 7 8 9 10 11 12 13 14 15 16 17 18 19 20 21 22 23 24 25 26 27 28 29 30 31 32 33 34
000
FTUS43 KDMX 101133
TAFFOD
TAF
KFOD 101133Z 1012/1112 VRB03KT 5SM BR SCT100
      TEMPO 1012/1013 2SM BR SCT008
     FM101300 18010KT P6SM SCT250
     FM101700 17014KT P6SM BKN250
     FM110000 15010KT P6SM BKN080 OVC250
     FM110600 16009KT P6SM VCTS SCT030CB BKN050=

USA.gov is the U.S. government's official web portal to all federal, state and local government web resources and services.